Time;durP1;ratioP1;P1;durP2;ratioP2;P2;SDS_P1;SDS_P2;PMS_P1;PMS_P2;Temp;Humidity;BMP_temperature;BMP_pressure;BME280_temperature;BME280_humidity;BME280_pressure;Samples;Min_cycle;Max_cycle;Signal;HPM_P1;HPM_P2
2021/06/17 00:03:56;;;;;;;1999.90;999.90;;;;;;;21.73;96.30;98207.51;3896620;74;44068;-24
2021/06/17 00:09:03;;;;;;;1999.90;999.90;;;;;;;21.69;96.38;98207.70;3900846;75;44491;-24
2021/06/17 00:14:10;;;;;;;1999.90;999.90;;;;;;;21.65;96.01;98206.51;3898719;74;43714;-24
2021/06/17 00:19:17;;;;;;;1999.90;999.90;;;;;;;21.61;95.55;98210.27;3887118;75;43090;-24
2021/06/17 00:24:23;;;;;;;1999.90;999.90;;;;;;;21.50;96.04;98198.73;3895613;75;44138;-24
2021/06/17 00:29:29;;;;;;;1999.90;999.90;;;;;;;21.44;96.42;98207.38;3903984;74;44104;-24
2021/06/17 00:39:49;;;;;;;1999.90;999.90;;;;;;;21.40;95.17;98211.66;3966486;73;27267;-23
2021/06/17 00:44:56;;;;;;;1999.90;999.90;;;;;;;21.38;93.75;98208.31;3929671;74;43310;-24
2021/06/17 00:50:03;;;;;;;1999.90;999.90;;;;;;;21.38;92.92;98208.31;3925281;75;43448;-25
2021/06/17 00:55:11;;;;;;;1999.90;999.90;;;;;;;21.36;92.58;98204.96;3918184;75;43407;-25
2021/06/17 01:00:21;;;;;;;1999.90;999.90;;;;;;;21.35;91.69;98210.14;3918739;74;43710;-24
2021/06/17 01:05:28;;;;;;;1999.90;999.90;;;;;;;21.33;91.15;98213.68;3924151;75;44007;-24
2021/06/17 01:10:39;;;;;;;1999.90;999.90;;;;;;;21.32;90.98;98207.34;3920072;74;43722;-24
2021/06/17 01:15:50;;;;;;;1999.90;999.90;;;;;;;21.31;90.11;98203.48;3909426;74;43352;-24
2021/06/17 01:20:58;;;;;;;1999.90;999.90;;;;;;;21.27;89.40;98208.61;3937339;75;43717;-24
2021/06/17 01:26:10;;;;;;;1999.90;999.90;;;;;;;21.21;88.95;98202.69;3914699;74;43414;-24
2021/06/17 01:31:22;;;;;;;1999.90;999.90;;;;;;;21.16;88.70;98196.55;3915130;75;44037;-24
2021/06/17 01:36:31;;;;;;;1999.90;999.90;;;;;;;21.13;89.26;98201.13;3913412;75;43357;-24
2021/06/17 01:41:39;;;;;;;1999.90;999.90;;;;;;;21.09;89.45;98194.47;3941191;74;44084;-24
2021/06/17 01:46:46;;;;;;;1999.90;999.90;;;;;;;21.01;89.04;98189.31;3925247;74;43454;-24
2021/06/17 01:51:55;;;;;;;1999.90;999.90;;;;;;;21.02;88.84;98181.39;3939727;75;44495;-24
2021/06/17 01:57:02;;;;;;;1999.90;999.90;;;;;;;21.01;87.97;98189.31;3943173;74;44739;-22
2021/06/17 02:02:10;;;;;;;1999.90;999.90;;;;;;;21.00;87.41;98187.64;3938336;75;43311;-22
2021/06/17 02:07:17;;;;;;;1999.90;999.90;;;;;;;20.99;86.82;98181.34;3928221;75;43717;-22
2021/06/17 02:12:23;;;;;;;1999.90;999.90;;;;;;;20.96;86.85;98176.33;3899977;74;44053;-22
2021/06/17 02:17:30;;;;;;;1999.90;999.90;;;;;;;20.90;87.29;98178.65;3929904;74;43687;-22
2021/06/17 02:22:38;;;;;;;1999.90;999.90;;;;;;;20.86;86.98;98173.33;3924111;74;43343;-23
2021/06/17 02:27:47;;;;;;;1999.90;999.90;;;;;;;20.81;86.85;98178.14;3937208;75;43755;-21
2021/06/17 02:32:56;;;;;;;1999.90;999.90;;;;;;;20.72;87.42;98174.05;3932959;75;42957;-21
2021/06/17 02:38:04;;;;;;;1999.90;999.90;;;;;;;20.70;86.41;98170.70;3946259;75;43671;-19
2021/06/17 02:43:13;;;;;;;1999.90;999.90;;;;;;;20.78;85.04;98167.66;3933112;74;44082;-27
2021/06/17 02:48:20;;;;;;;1999.90;999.90;;;;;;;20.70;85.21;98159.20;3938554;74;43206;-20
2021/06/17 02:53:28;;;;;;;1999.90;999.90;;;;;;;20.69;84.44;98160.81;3943302;74;43330;-22
2021/06/17 03:04:22;;;;;;;1999.90;999.90;;;;;;;20.62;83.75;98154.07;4003692;73;27212;-20
2021/06/17 03:09:32;;;;;;;1999.90;999.90;;;;;;;20.52;84.75;98151.06;3921945;74;44065;-21
2021/06/17 03:19:54;;;;;;;1999.90;999.90;;;;;;;20.46;84.38;98139.16;4006601;73;27225;-20
2021/06/17 03:25:06;;;;;;;1999.90;999.90;;;;;;;20.33;85.19;98138.81;3931773;74;44167;-23
2021/06/17 03:30:17;;;;;;;1999.90;999.90;;;;;;;20.27;84.64;98146.05;3937648;73;44263;-23
2021/06/17 03:35:28;;;;;;;1999.90;999.90;;;;;;;20.39;83.32;98152.10;3921553;73;43682;-23
2021/06/17 03:40:33;;;;;;;1999.90;999.90;;;;;;;20.37;83.09;98154.23;3929382;73;43726;-23
2021/06/17 03:45:42;;;;;;;1999.90;999.90;;;;;;;20.31;83.84;98158.18;3939398;73;44032;-23
2021/06/17 03:50:50;;;;;;;1999.90;999.90;;;;;;;20.23;84.75;98152.19;3924278;75;44059;-24
2021/06/17 03:55:56;;;;;;;1999.90;999.90;;;;;;;20.28;84.02;98161.91;3918291;73;43410;-23
2021/06/17 04:01:06;;;;;;;1999.90;999.90;;;;;;;20.27;84.18;98166.56;3924661;75;44560;-21
2021/06/17 04:06:16;;;;;;;1999.90;999.90;;;;;;;20.29;84.12;98167.69;3929248;73;43360;-22
2021/06/17 04:11:23;;;;;;;1999.90;999.90;;;;;;;20.30;84.15;98181.13;3928812;73;44031;-22
2021/06/17 04:16:31;;;;;;;1999.90;999.90;;;;;;;20.31;84.31;98188.27;3926536;74;44093;-22
2021/06/17 04:21:38;;;;;;;1999.90;999.90;;;;;;;20.31;84.31;98196.48;3946180;74;43692;-22
2021/06/17 04:26:45;;;;;;;1999.90;999.90;;;;;;;20.36;84.10;98192.23;3966056;73;44078;-23
2021/06/17 04:31:54;;;;;;;1999.90;999.90;;;;;;;20.42;84.53;98198.12;3948708;73;43480;-21
2021/06/17 04:37:02;;;;;;;1999.90;999.90;;;;;;;20.50;83.96;98195.61;3955030;73;44075;-23
2021/06/17 04:42:10;;;;;;;1999.90;999.90;;;;;;;20.58;82.98;98195.31;3934739;73;43701;-24
2021/06/17 04:47:18;;;;;;;1999.90;999.90;;;;;;;20.64;82.43;98202.03;3940492;73;44261;-22
2021/06/17 04:57:40;;;;;;;1999.90;999.90;;;;;;;20.86;81.58;98200.19;3974395;73;27167;-20
2021/06/17 05:02:46;;;;;;;1999.90;999.90;;;;;;;20.91;81.20;98205.78;3911327;75;43743;-21
2021/06/17 05:10:48;;;;;;;1999.90;999.90;;;;;;;20.95;82.12;98199.30;3917945;75;43427;-22
2021/06/17 05:13:02;;;;;;;1999.90;999.90;;;;;;;21.05;80.43;98209.14;3914799;74;44118;-22
2021/06/17 05:18:08;;;;;;;1999.90;999.90;;;;;;;21.03;80.67;98206.34;3908945;74;43325;-22
2021/06/17 05:23:18;;;;;;;1999.90;999.90;;;;;;;21.11;80.95;98211.48;3910931;75;44027;-22
2021/06/17 05:28:26;;;;;;;1999.90;999.90;;;;;;;21.22;81.65;98218.06;3916361;74;44416;-22
2021/06/17 05:33:32;;;;;;;1999.90;999.90;;;;;;;21.31;81.38;98218.55;3912560;75;44028;-22
2021/06/17 05:38:39;;;;;;;1999.90;999.90;;;;;;;21.38;81.84;98221.48;3912210;75;43436;-23
2021/06/17 05:43:45;;;;;;;1999.90;999.90;;;;;;;21.43;82.79;98212.55;3913003;74;43417;-23
2021/06/17 05:48:51;;;;;;;1999.90;999.90;;;;;;;21.49;82.12;98213.51;3922606;74;44111;-23
2021/06/17 05:53:57;;;;;;;1999.90;999.90;;;;;;;21.59;81.81;98214.27;3917002;74;43758;-22
2021/06/17 05:59:03;;;;;;;1999.90;999.90;;;;;;;21.74;81.98;98210.55;3887330;74;44046;-23
2021/06/17 06:04:09;;;;;;;1999.90;999.90;;;;;;;21.86;81.48;98220.98;3884710;75;44121;-23
2021/06/17 06:14:28;;;;;;;1999.90;999.90;;;;;;;22.21;80.90;98233.50;3977294;73;27304;-19
2021/06/17 06:19:35;;;;;;;1999.90;999.90;;;;;;;22.30;79.01;98233.41;3938290;75;44067;-21
2021/06/17 06:24:41;;;;;;;1999.90;999.90;;;;;;;22.46;78.23;98240.11;3915767;74;43416;-22
2021/06/17 06:29:47;;;;;;;1999.90;999.90;;;;;;;22.61;78.89;98238.20;3910915;74;44105;-22
2021/06/17 06:34:54;;;;;;;1999.90;999.90;;;;;;;22.68;78.45;98243.00;3910195;75;44033;-22
2021/06/17 06:40:01;;;;;;;1999.90;999.90;;;;;;;22.81;76.66;98235.55;3905305;75;43380;-22
2021/06/17 06:45:09;;;;;;;1999.90;999.90;;;;;;;22.95;77.20;98231.42;3923737;74;43315;-22
2021/06/17 06:50:16;;;;;;;1999.90;999.90;;;;;;;23.12;76.52;98239.70;3906598;74;44092;-22
2021/06/17 07:00:22;;;;;;;1999.90;999.90;;;;;;;23.54;71.80;98239.87;3949198;72;30627;-19
2021/06/17 07:05:29;;;;;;;1999.90;999.90;;;;;;;23.66;73.40;98238.39;3908815;74;44028;-21
2021/06/17 07:10:35;;;;;;;1999.90;999.90;;;;;;;23.88;71.59;98235.70;3917177;75;43377;-22
2021/06/17 07:15:41;;;;;;;1999.90;999.90;;;;;;;24.13;66.36;98237.19;3912950;74;43110;-22
2021/06/17 07:20:48;;;;;;;1999.90;999.90;;;;;;;24.28;67.14;98229.66;3915637;75;44074;-22
2021/06/17 07:25:54;;;;;;;1999.90;999.90;;;;;;;24.44;65.86;98230.16;3924665;75;43678;-25
2021/06/17 07:31:00;;;;;;;1999.90;999.90;;;;;;;24.60;66.59;98225.66;3907280;74;43664;-23
2021/06/17 07:36:09;;;;;;;1999.90;999.90;;;;;;;24.86;65.46;98233.38;3920353;74;43412;-23
2021/06/17 07:41:15;;;;;;;1999.90;999.90;;;;;;;25.07;63.13;98239.94;3911318;74;43491;-23
2021/06/17 07:46:21;;;;;;;1999.90;999.90;;;;;;;25.26;60.22;98245.91;3915209;74;43695;-23
2021/06/17 07:51:27;;;;;;;1999.90;999.90;;;;;;;25.39;59.97;98246.86;3925399;75;43728;-23
2021/06/17 07:56:33;;;;;;;1999.90;999.90;;;;;;;25.50;58.47;98251.11;3919081;75;43368;-23
2021/06/17 08:01:39;;;;;;;1999.90;999.90;;;;;;;25.66;60.84;98251.48;3874306;74;43981;-22
2021/06/17 08:06:47;;;;;;;1999.90;999.90;;;;;;;25.83;59.98;98245.81;3892248;74;43322;-23
2021/06/17 08:11:53;;;;;;;1999.90;999.90;;;;;;;25.99;60.82;98243.16;3774801;76;43596;-23
2021/06/17 08:17:02;;;;;;;1999.90;999.90;;;;;;;26.30;56.05;98239.20;3864235;74;44004;-24
2021/06/17 08:22:11;;;;;;;1999.90;999.90;;;;;;;26.48;56.65;98235.70;3894907;75;43429;-23
2021/06/17 08:27:16;;;;;;;1999.90;999.90;;;;;;;26.73;53.35;98226.13;3876513;75;44457;-19
2021/06/17 08:32:22;;;;;;;1999.90;999.90;;;;;;;27.00;48.99;98228.41;3891635;75;44014;-22
2021/06/17 08:37:28;;;;;;;1999.90;999.90;;;;;;;27.28;48.18;98220.70;3891430;75;43346;-22
2021/06/17 08:42:35;;;;;;;1999.90;999.90;;;;;;;27.52;47.13;98221.81;3886576;74;44154;-22
2021/06/17 08:47:41;;;;;;;1999.90;999.90;;;;;;;27.64;46.58;98225.69;3882425;74;43491;-22
2021/06/17 08:52:48;;;;;;;1999.90;999.90;;;;;;;27.86;45.49;98227.31;3884520;74;44063;-23
2021/06/17 08:57:55;;;;;;;1999.90;999.90;;;;;;;27.99;46.43;98234.19;3892506;74;43704;-22
2021/06/17 09:03:03;;;;;;;1999.90;999.90;;;;;;;28.24;45.89;98236.65;3892440;75;43991;-22
2021/06/17 09:08:11;;;;;;;1999.90;999.90;;;;;;;28.44;44.87;98225.52;3878759;75;43473;-22
2021/06/17 09:13:17;;;;;;;1999.90;999.90;;;;;;;28.60;44.10;98230.42;3907609;74;44055;-22
2021/06/17 09:18:25;;;;;;;1999.90;999.90;;;;;;;28.74;41.10;98233.98;3895196;74;43047;-22
2021/06/17 09:23:36;;;;;;;1999.90;999.90;;;;;;;28.84;39.87;98238.63;3882694;74;43404;-22
2021/06/17 09:28:57;;;;;;;1999.90;999.90;;;;;;;28.99;40.26;98236.34;3879700;75;44425;-22
2021/06/17 09:34:06;;;;;;;1999.90;999.90;;;;;;;29.18;39.61;98237.31;3885954;75;43778;-23
2021/06/17 09:39:15;;;;;;;1999.90;999.90;;;;;;;29.20;38.27;98233.69;3903012;75;44097;-22
2021/06/17 09:44:31;;;;;;;1999.90;999.90;;;;;;;29.29;38.44;98238.04;3882675;74;43699;-23
2021/06/17 09:49:38;;;;;;;1999.90;999.90;;;;;;;29.42;38.53;98233.83;3892214;74;44011;-23
2021/06/17 09:54:45;;;;;;;1999.90;999.90;;;;;;;29.46;38.22;98235.45;3881024;74;43872;-23
2021/06/17 09:59:54;;;;;;;1999.90;999.90;;;;;;;29.64;39.15;98238.08;3892455;75;44459;-22
2021/06/17 10:05:13;;;;;;;1999.90;999.90;;;;;;;29.63;39.93;98243.36;3878215;75;44040;-23
2021/06/17 10:10:22;;;;;;;1999.90;999.90;;;;;;;29.57;39.13;98250.08;3894060;75;43566;-23
2021/06/17 10:15:28;;;;;;;1999.90;999.90;;;;;;;29.70;38.81;98250.77;3886234;75;43448;-23
2021/06/17 10:20:38;;;;;;;1999.90;999.90;;;;;;;29.82;40.11;98248.44;3872471;75;44663;-23
2021/06/17 10:25:46;;;;;;;1999.90;999.90;;;;;;;29.98;39.49;98241.37;3883049;75;44012;-23
2021/06/17 10:30:52;;;;;;;1999.90;999.90;;;;;;;30.04;37.69;98233.28;3875462;74;43964;-23
2021/06/17 10:36:24;;;;;;;1999.90;999.90;;;;;;;30.09;38.53;98242.11;3895110;75;43377;-22
2021/06/17 10:42:09;;;;;;;1999.90;999.90;;;;;;;30.24;37.10;98240.52;3873004;75;43683;-22
2021/06/17 10:47:52;;;;;;;1999.90;999.90;;;;;;;30.42;37.85;98228.38;3894235;75;43996;-23
2021/06/17 10:53:18;;;;;;;1999.90;999.90;;;;;;;30.48;37.88;98218.84;3902665;75;44074;-22
2021/06/17 10:58:55;;;;;;;1999.90;999.90;;;;;;;30.71;36.09;98203.83;3878015;74;43440;-22
2021/06/17 11:04:05;;;;;;;1999.90;999.90;;;;;;;30.67;37.24;98200.02;3874550;75;43716;-22
2021/06/17 11:09:40;;;;;;;1999.90;999.90;;;;;;;30.81;36.06;98202.87;3879459;75;43988;-22
2021/06/17 11:20:03;;;;;;;1999.90;999.90;;;;;;;31.26;36.72;98196.35;4015209;73;27126;-20
2021/06/17 11:25:16;;;;;;;1999.90;999.90;;;;;;;31.10;36.65;98190.76;3970999;73;43999;-21
2021/06/17 11:30:24;;;;;;;1999.90;999.90;;;;;;;31.33;37.43;98184.28;3969033;73;43965;-22
2021/06/17 11:35:32;;;;;;;1999.90;999.90;;;;;;;31.32;36.17;98180.39;3956759;73;43715;-22
2021/06/17 11:40:38;;;;;;;1999.90;999.90;;;;;;;31.42;37.29;98167.69;3966079;73;43729;-23
2021/06/17 11:45:44;;;;;;;1999.90;999.90;;;;;;;31.56;37.12;98157.99;3968234;73;43682;-23
2021/06/17 11:50:52;;;;;;;1999.90;999.90;;;;;;;31.76;36.75;98149.02;3970956;73;43333;-23
2021/06/17 11:55:59;;;;;;;1999.90;999.90;;;;;;;31.94;36.95;98136.13;3967955;73;43445;-23
2021/06/17 12:01:10;;;;;;;1999.90;999.90;;;;;;;32.05;36.63;98143.14;3970566;73;43691;-23
2021/06/17 12:06:16;;;;;;;1999.90;999.90;;;;;;;32.16;35.90;98147.94;3968270;73;43422;-22
2021/06/17 12:11:25;;;;;;;1999.90;999.90;;;;;;;32.34;35.15;98143.95;3968499;73;43372;-23
2021/06/17 12:16:32;;;;;;;1999.90;999.90;;;;;;;32.55;36.22;98142.36;3964083;73;44134;-22
2021/06/17 12:21:38;;;;;;;1999.90;999.90;;;;;;;32.74;35.58;98150.58;3976397;74;44045;-22
2021/06/17 12:26:45;;;;;;;1999.90;999.90;;;;;;;33.14;34.70;98144.34;3987919;73;43297;-22
2021/06/17 12:37:10;;;;;;;1999.90;999.90;;;;;;;33.34;34.29;98129.07;3992774;72;27236;-21
2021/06/17 12:42:16;;;;;;;1999.90;999.90;;;;;;;33.59;35.39;98123.10;3932829;74;43683;-22
2021/06/17 12:47:25;;;;;;;1999.90;999.90;;;;;;;33.71;34.90;98124.72;3922004;74;43416;-23
2021/06/17 12:52:33;;;;;;;1999.90;999.90;;;;;;;33.83;33.49;98119.09;3935753;74;44733;-22
2021/06/17 12:57:41;;;;;;;1999.90;999.90;;;;;;;34.07;33.83;98126.52;3905716;75;43420;-22
2021/06/17 13:02:50;;;;;;;1999.90;999.90;;;;;;;33.76;33.95;98114.81;3933583;75;44091;-22
2021/06/17 13:08:05;;;;;;;1999.90;999.90;;;;;;;33.87;34.75;98115.36;3926502;74;43674;-22
2021/06/17 13:13:17;;;;;;;1999.90;999.90;;;;;;;34.21;35.50;98107.40;3931735;75;43377;-22
2021/06/17 13:18:24;;;;;;;1999.90;999.90;;;;;;;34.52;34.46;98119.06;3928192;74;43678;-22
2021/06/17 13:23:35;;;;;;;1999.90;999.90;;;;;;;34.68;33.63;98113.23;3935912;74;43336;-22
2021/06/17 13:28:44;;;;;;;1999.90;999.90;;;;;;;34.07;35.03;98122.33;3937248;75;44020;-23
2021/06/17 13:33:53;;;;;;;1999.90;999.90;;;;;;;34.67;33.36;98129.77;3935985;75;43386;-23
2021/06/17 13:39:00;;;;;;;1999.90;999.90;;;;;;;35.10;31.93;98128.73;3938645;75;43726;-23
2021/06/17 13:44:08;;;;;;;1999.90;999.90;;;;;;;35.51;31.04;98131.53;3930655;75;43442;-23
2021/06/17 13:49:14;;;;;;;1999.90;999.90;;;;;;;35.92;31.38;98133.43;3939089;75;43722;-24
2021/06/17 13:54:22;;;;;;;1999.90;999.90;;;;;;;36.02;32.06;98131.67;3933369;74;43481;-23
2021/06/17 13:59:28;;;;;;;1999.90;999.90;;;;;;;36.02;32.06;98131.67;3941848;74;43554;-23
2021/06/17 14:04:35;;;;;;;1999.90;999.90;;;;;;;36.06;31.60;98132.66;3944704;75;43356;-23
2021/06/17 14:09:41;;;;;;;1999.90;999.90;;;;;;;35.71;32.43;98130.55;3943747;74;43366;-23
2021/06/17 14:14:49;;;;;;;1999.90;999.90;;;;;;;35.44;31.48;98131.23;3936306;75;43307;-23
2021/06/17 14:19:56;;;;;;;1999.90;999.90;;;;;;;35.44;31.48;98131.23;3945207;75;44031;-23
2021/06/17 14:25:02;;;;;;;1999.90;999.90;;;;;;;35.95;31.10;98121.58;3939724;75;43346;-23
2021/06/17 14:30:12;;;;;;;1999.90;999.90;;;;;;;36.00;30.43;98117.17;3936945;74;44107;-25
2021/06/17 14:35:19;;;;;;;1999.90;999.90;;;;;;;36.54;31.15;98109.50;3896489;74;44685;-25
2021/06/17 14:40:26;;;;;;;1999.90;999.90;;;;;;;36.53;28.55;98106.45;3931923;74;43703;-25
2021/06/17 14:45:32;;;;;;;1999.90;999.90;;;;;;;36.78;29.93;98119.22;3964587;74;43368;-25
2021/06/17 14:50:40;;;;;;;1999.90;999.90;;;;;;;36.41;28.76;98103.55;3950837;74;43685;-25
2021/06/17 14:55:46;;;;;;;1999.90;999.90;;;;;;;36.18;29.33;98100.25;3952854;74;44027;-25
2021/06/17 15:00:53;;;;;;;1999.90;999.90;;;;;;;37.07;28.90;98097.02;3946974;74;44071;-26
2021/06/17 15:05:59;;;;;;;1999.90;999.90;;;;;;;37.26;28.99;98107.73;3960243;75;44113;-25
2021/06/17 15:11:08;;;;;;;1999.90;999.90;;;;;;;37.29;28.58;98098.61;3867576;76;42860;-25
2021/06/17 15:16:13;;;;;;;1999.90;999.90;;;;;;;37.53;28.98;98101.27;3956319;74;43571;-25
2021/06/17 15:21:22;;;;;;;1999.90;999.90;;;;;;;37.46;28.47;98104.05;3955530;74;44096;-23
2021/06/17 15:26:28;;;;;;;1999.90;999.90;;;;;;;37.44;28.70;98106.41;3949566;74;44042;-23
2021/06/17 15:31:36;;;;;;;1999.90;999.90;;;;;;;37.83;28.32;98100.47;3949520;74;43303;-24
2021/06/17 15:36:44;;;;;;;1999.90;999.90;;;;;;;37.78;28.80;98093.66;3957120;74;44097;-23
2021/06/17 15:41:51;;;;;;;1999.90;999.90;;;;;;;38.17;28.42;98098.94;3955425;74;43105;-23
2021/06/17 15:46:59;;;;;;;1999.90;999.90;;;;;;;37.85;28.19;98092.52;3957995;74;44059;-23
2021/06/17 15:52:09;;;;;;;1999.90;999.90;;;;;;;37.03;28.57;98081.45;3970497;74;44178;-23
2021/06/17 15:57:15;;;;;;;1999.90;999.90;;;;;;;36.78;29.22;98077.11;3958243;74;43714;-25
2021/06/17 16:02:21;;;;;;;1999.90;999.90;;;;;;;36.83;29.37;98076.92;3953485;74;43032;-23
2021/06/17 16:07:27;;;;;;;1999.90;999.90;;;;;;;37.02;28.35;98074.19;3950297;74;43446;-23
2021/06/17 16:12:33;;;;;;;1999.90;999.90;;;;;;;37.34;28.42;98080.11;3960488;74;44016;-24
2021/06/17 16:17:45;;;;;;;1999.90;999.90;;;;;;;36.86;27.87;98078.20;3951904;74;44126;-23
2021/06/17 16:22:49;;;;;;;1999.90;999.90;;;;;;;36.72;28.67;98078.50;3965075;74;44400;-23
2021/06/17 16:27:56;;;;;;;1999.90;999.90;;;;;;;36.22;29.32;98074.59;3959008;74;44012;-23
2021/06/17 16:33:02;;;;;;;1999.90;999.90;;;;;;;36.00;29.80;98075.71;3960302;74;43704;-23
2021/06/17 16:38:09;;;;;;;1999.90;999.90;;;;;;;35.56;30.40;98071.69;3954201;74;43210;-23
2021/06/17 16:43:15;;;;;;;1999.90;999.90;;;;;;;35.45;30.86;98070.67;3952591;74;44041;-23
2021/06/17 16:48:24;;;;;;;1999.90;999.90;;;;;;;35.33;30.20;98064.91;3951905;74;43452;-23
2021/06/17 16:53:31;;;;;;;1999.90;999.90;;;;;;;35.94;30.54;98071.69;3960165;74;43656;-23
2021/06/17 16:58:37;;;;;;;1999.90;999.90;;;;;;;35.57;30.74;98069.98;3960683;74;43678;-23
2021/06/17 17:03:44;;;;;;;1999.90;999.90;;;;;;;36.15;30.01;98069.52;3950022;74;43514;-23
2021/06/17 17:08:54;;;;;;;1999.90;999.90;;;;;;;36.28;30.15;98059.19;3955451;74;43027;-23
2021/06/17 17:14:00;;;;;;;1999.90;999.90;;;;;;;36.43;29.62;98052.77;3951714;74;43001;-23
2021/06/17 17:19:06;;;;;;;1999.90;999.90;;;;;;;36.40;30.07;98052.81;3957339;74;42643;-23
2021/06/17 17:24:14;;;;;;;1999.90;999.90;;;;;;;36.39;30.74;98063.23;3954287;74;43459;-24
2021/06/17 17:29:20;;;;;;;1999.90;999.90;;;;;;;36.31;30.96;98061.88;3964561;74;43452;-24
2021/06/17 17:34:26;;;;;;;1999.90;999.90;;;;;;;36.15;30.56;98063.08;3950453;74;43477;-24
2021/06/17 17:39:32;;;;;;;1999.90;999.90;;;;;;;35.99;30.82;98060.05;3919710;74;43977;-24
2021/06/17 17:49:54;;;;;;;1999.90;999.90;;;;;;;35.91;31.00;98065.35;4008286;73;27152;-22
2021/06/17 17:55:00;;;;;;;1999.90;999.90;;;;;;;35.73;31.36;98072.19;3939648;73;43743;-22
2021/06/17 18:00:09;;;;;;;1999.90;999.90;;;;;;;35.21;32.11;98078.79;3931065;73;43579;-22
2021/06/17 18:05:20;;;;;;;1999.90;999.90;;;;;;;34.48;33.00;98078.94;3934640;75;43976;-22
2021/06/17 18:10:28;;;;;;;1999.90;999.90;;;;;;;34.18;33.56;98082.88;3931664;73;43475;-22
2021/06/17 18:15:36;;;;;;;1999.90;999.90;;;;;;;33.11;35.14;98080.77;3930806;75;44057;-22
2021/06/17 18:20:44;;;;;;;1999.90;999.90;;;;;;;32.52;35.95;98071.88;3919387;75;44390;-23
2021/06/17 18:25:50;;;;;;;1999.90;999.90;;;;;;;31.42;37.32;98070.26;3941677;73;43727;-22
2021/06/17 18:30:56;;;;;;;1999.90;999.90;;;;;;;31.00;38.30;98073.52;3924296;73;43719;-22
2021/06/17 18:36:03;;;;;;;1999.90;999.90;;;;;;;30.64;38.28;98070.75;3922785;73;44360;-22
2021/06/17 18:41:09;;;;;;;1999.90;999.90;;;;;;;30.27;39.22;98082.13;3920686;73;44083;-22
2021/06/17 18:46:16;;;;;;;1999.90;999.90;;;;;;;29.84;40.14;98080.17;3866807;76;44047;-22
2021/06/17 18:51:21;;;;;;;1999.90;999.90;;;;;;;29.39;41.76;98080.39;3911797;75;43468;-22
2021/06/17 18:56:29;;;;;;;1999.90;999.90;;;;;;;29.39;41.76;98080.39;3935880;73;43439;-22
2021/06/17 19:01:35;;;;;;;1999.90;999.90;;;;;;;28.98;43.19;98076.61;3918658;75;44019;-22
2021/06/17 19:06:41;;;;;;;1999.90;999.90;;;;;;;28.56;44.37;98071.36;3923464;73;43722;-22
2021/06/17 19:11:48;;;;;;;1999.90;999.90;;;;;;;28.29;45.29;98072.64;3920640;73;43994;-21
2021/06/17 19:16:54;;;;;;;1999.90;999.90;;;;;;;28.10;45.97;98075.80;3917911;75;43265;-22
2021/06/17 19:22:05;;;;;;;1999.90;999.90;;;;;;;27.82;46.85;98074.80;3921958;75;43958;-22
2021/06/17 19:27:12;;;;;;;1999.90;999.90;;;;;;;27.58;48.00;98077.94;3927606;73;44063;-22
2021/06/17 19:32:20;;;;;;;1999.90;999.90;;;;;;;27.40;48.71;98086.25;3914991;75;43442;-21
2021/06/17 19:37:27;;;;;;;1999.90;999.90;;;;;;;27.21;49.46;98089.05;3917143;75;44011;-22
2021/06/17 19:42:33;;;;;;;1999.90;999.90;;;;;;;27.05;49.63;98089.63;3941780;73;44046;-22
2021/06/17 19:47:39;;;;;;;1999.90;999.90;;;;;;;26.94;50.93;98101.80;3912542;73;43698;-24
2021/06/17 19:52:47;;;;;;;1999.90;999.90;;;;;;;26.79;51.99;98102.63;3914873;75;44065;-21
2021/06/17 19:57:54;;;;;;;1999.90;999.90;;;;;;;26.67;52.05;98092.37;3901363;74;44067;-22
2021/06/17 20:03:01;;;;;;;1999.90;999.90;;;;;;;26.49;53.04;98100.63;3902003;75;44051;-22
2021/06/17 20:08:08;;;;;;;1999.90;999.90;;;;;;;26.37;53.23;98101.72;3895559;75;43425;-23
2021/06/17 20:13:16;;;;;;;1999.90;999.90;;;;;;;26.21;54.18;98102.77;3906897;74;43726;-22
2021/06/17 20:18:22;;;;;;;1999.90;999.90;;;;;;;26.10;54.95;98102.73;3902727;74;43686;-22
2021/06/17 20:23:30;;;;;;;1999.90;999.90;;;;;;;26.06;53.80;98106.28;3904663;75;43997;-22
2021/06/17 20:28:39;;;;;;;1999.90;999.90;;;;;;;25.91;55.31;98105.12;3888571;74;44124;-22
2021/06/17 20:33:46;;;;;;;1999.90;999.90;;;;;;;25.77;56.45;98107.55;3897707;75;44027;-21
2021/06/17 20:38:52;;;;;;;1999.90;999.90;;;;;;;25.64;56.34;98105.27;3908362;75;43340;-22
2021/06/17 20:44:00;;;;;;;1999.90;999.90;;;;;;;25.50;57.99;98107.69;3896601;74;44071;-22
2021/06/17 20:49:06;;;;;;;1999.90;999.90;;;;;;;25.41;57.93;98114.78;3900725;74;44086;-22
2021/06/17 20:54:13;;;;;;;1999.90;999.90;;;;;;;25.34;58.89;98121.91;3915805;74;44059;-22
2021/06/17 20:59:19;;;;;;;1999.90;999.90;;;;;;;25.22;59.08;98127.06;3915163;74;43738;-22
2021/06/17 21:04:26;;;;;;;1999.90;999.90;;;;;;;25.08;59.75;98129.42;3906945;75;43330;-22
2021/06/17 21:09:32;;;;;;;1999.90;999.90;;;;;;;25.03;59.75;98138.19;3917003;75;43333;-24
2021/06/17 21:14:39;;;;;;;1999.90;999.90;;;;;;;24.91;60.68;98143.33;3908222;73;44081;-22
2021/06/17 21:19:47;;;;;;;1999.90;999.90;;;;;;;24.88;60.57;98140.28;3911534;75;44071;-22
2021/06/17 21:24:54;;;;;;;1999.90;999.90;;;;;;;24.80;61.06;98144.34;3915676;74;44479;-22
2021/06/17 21:30:00;;;;;;;1999.90;999.90;;;;;;;24.74;61.52;98139.89;3913862;74;43029;-23
2021/06/17 21:35:08;;;;;;;1999.90;999.90;;;;;;;24.69;61.19;98139.83;3912827;75;43742;-25
2021/06/17 21:40:15;;;;;;;1999.90;999.90;;;;;;;24.70;60.50;98135.98;3908344;75;44023;-24
2021/06/17 21:50:39;;;;;;;1999.90;999.90;;;;;;;24.74;61.01;98144.84;3979279;73;27194;-19
2021/06/17 21:55:44;;;;;;;1999.90;999.90;;;;;;;24.66;60.02;98141.16;3928074;74;43651;-24
2021/06/17 22:00:51;;;;;;;1999.90;999.90;;;;;;;24.61;59.95;98141.94;3933679;74;43701;-24
2021/06/17 22:05:57;;;;;;;1999.90;999.90;;;;;;;24.54;60.30;98144.61;3933392;74;43465;-24
2021/06/17 22:11:04;;;;;;;1999.90;999.90;;;;;;;24.49;60.17;98145.39;3931292;74;43430;-24
2021/06/17 22:16:10;;;;;;;1999.90;999.90;;;;;;;24.45;60.43;98150.59;3932611;74;43674;-24
2021/06/17 22:21:17;;;;;;;1999.90;999.90;;;;;;;24.28;61.11;98150.68;3938748;74;44045;-24
2021/06/17 22:26:24;;;;;;;1999.90;999.90;;;;;;;24.24;61.26;98154.17;3932429;74;43716;-24
2021/06/17 22:31:29;;;;;;;1999.90;999.90;;;;;;;24.16;61.29;98149.98;3919382;74;42912;-24
2021/06/17 22:36:36;;;;;;;1999.90;999.90;;;;;;;24.08;60.94;98144.91;3951574;74;43436;-24
2021/06/17 22:41:42;;;;;;;1999.90;999.90;;;;;;;24.08;60.63;98151.78;3928514;74;43679;-24
2021/06/17 22:46:49;;;;;;;1999.90;999.90;;;;;;;24.09;60.64;98141.07;3938158;74;43563;-24
2021/06/17 22:51:56;;;;;;;1999.90;999.90;;;;;;;24.09;60.39;98142.45;3934062;75;43702;-24
2021/06/17 22:57:02;;;;;;;1999.90;999.90;;;;;;;24.09;60.18;98147.95;3923885;74;43329;-24
2021/06/17 23:02:08;;;;;;;1999.90;999.90;;;;;;;24.08;60.00;98146.28;3907770;75;43308;-24
2021/06/17 23:07:14;;;;;;;1999.90;999.90;;;;;;;24.06;59.71;98147.93;3913304;74;44389;-22
2021/06/17 23:12:20;;;;;;;1999.90;999.90;;;;;;;24.01;59.70;98147.85;3919573;74;44011;-24
2021/06/17 23:17:26;;;;;;;1999.90;999.90;;;;;;;24.02;59.90;98144.58;3919253;75;44487;-24
2021/06/17 23:22:32;;;;;;;1999.90;999.90;;;;;;;23.97;60.21;98142.03;3896805;75;43075;-22
2021/06/17 23:27:39;;;;;;;1999.90;999.90;;;;;;;23.92;60.42;98140.58;3908397;74;43196;-23
2021/06/17 23:32:49;;;;;;;1999.90;999.90;;;;;;;23.95;59.89;98137.85;3908385;75;43713;-22
2021/06/17 23:37:56;;;;;;;1999.90;999.90;;;;;;;23.90;60.12;98139.15;3901068;75;44039;-22
2021/06/17 23:43:02;;;;;;;1999.90;999.90;;;;;;;23.87;59.62;98151.50;3910041;74;44416;-22